createdAt,value
2023-01-01T00:01:16.579Z,13.274999999999999
2023-01-01T00:04:17.038Z,13
2023-01-01T00:07:16.910Z,10.6625
2023-01-01T00:11:16.257Z,14.2
2023-01-01T00:14:16.644Z,9.975
2023-01-01T00:17:16.557Z,8.774999999999999
2023-01-01T00:21:17.703Z,11.2125
2023-01-01T00:24:16.885Z,9.4375
2023-01-01T00:27:17.101Z,7.325
2023-01-01T00:31:20.101Z,7.0875
2023-01-01T00:34:16.487Z,7.6875
2023-01-01T00:37:19.711Z,7.700000000000001
2023-01-01T00:41:17.076Z,11.4125
2023-01-01T00:44:16.780Z,13.675
2023-01-01T00:47:16.655Z,10.9375
2023-01-01T00:51:15.785Z,13.875
2023-01-01T00:54:16.073Z,14.887500000000001
2023-01-01T00:57:16.144Z,18.4125
2023-01-01T01:01:16.022Z,18.85
2023-01-01T01:04:16.194Z,15.75
2023-01-01T01:07:16.333Z,14.6125
2023-01-01T01:11:18.748Z,14.05
2023-01-01T01:14:16.256Z,14.375
2023-01-01T01:17:16.405Z,10.925
2023-01-01T01:21:19.315Z,11.600000000000001
2023-01-01T01:24:17.292Z,9.525
2023-01-01T01:27:17.070Z,9.474999999999998
2023-01-01T01:31:16.929Z,8.712499999999999
2023-01-01T01:34:21.169Z,7.6375
2023-01-01T01:37:16.601Z,8.375
2023-01-01T01:41:27.473Z,8.325
2023-01-01T01:45:21.226Z,5.2875
2023-01-01T01:47:19.875Z,7.324999999999999
2023-01-01T01:51:22.086Z,8.2625
2023-01-01T01:54:21.890Z,6.4125
2023-01-01T01:57:17.075Z,6.5625
2023-01-01T02:01:17.217Z,7.850000000000001
2023-01-01T02:04:17.389Z,6.3
2023-01-01T02:07:18.748Z,5.3375
2023-01-01T02:11:21.631Z,7.7875
2023-01-01T02:14:16.409Z,6.625
2023-01-01T02:17:22.317Z,6.725
2023-01-01T02:21:21.660Z,6.925000000000001
2023-01-01T02:24:31.731Z,6.387499999999999
2023-01-01T02:27:24.407Z,8.1875
2023-01-01T02:31:25.335Z,8.875
2023-01-01T02:34:21.339Z,9.75
2023-01-01T02:37:19.637Z,8.35
2023-01-01T02:41:20.950Z,7.725
2023-01-01T02:44:20.679Z,5.449999999999999
2023-01-01T02:47:18.741Z,4.9375
2023-01-01T02:51:27.811Z,6.2375
2023-01-01T02:54:30.078Z,4.800000000000001
2023-01-01T02:57:30.074Z,5.2125
2023-01-01T03:01:24.386Z,5.7125
2023-01-01T03:04:23.513Z,5.825
2023-01-01T03:07:25.158Z,4.8375
2023-01-01T03:11:19.109Z,5.925
2023-01-01T03:14:22.900Z,4.85
2023-01-01T03:17:23.903Z,5.137499999999999
2023-01-01T03:31:21.153Z,8.6125
2023-01-01T03:34:21.456Z,7.387499999999999
2023-01-01T03:37:26.729Z,7.8375
2023-01-01T03:41:25.598Z,7.925000000000001
2023-01-01T03:44:25.046Z,6.4375
2023-01-01T03:47:16.551Z,7.0625
2023-01-01T03:51:25.284Z,8.7125
2023-01-01T03:54:24.825Z,10.25
2023-01-01T03:57:22.544Z,7.4375
2023-01-01T04:01:22.835Z,7.25
2023-01-01T04:04:17.531Z,5.550000000000001
2023-01-01T04:07:16.484Z,6.1125
2023-01-01T04:12:21.101Z,5.6125
2023-01-01T04:14:26.520Z,4.6375
2023-01-01T04:17:16.443Z,5.8625
2023-01-01T04:21:16.287Z,5.5125
2023-01-01T04:24:16.875Z,5.1625
2023-01-01T04:27:16.770Z,4.875
2023-01-01T04:31:15.582Z,4.55
2023-01-01T04:34:16.245Z,5.137499999999999
2023-01-01T04:37:16.162Z,4.825
2023-01-01T04:41:16.116Z,5.6
2023-01-01T04:44:16.614Z,6.3125
2023-01-01T04:47:16.445Z,6.425
2023-01-01T04:51:18.653Z,5
2023-01-01T04:54:16.737Z,5.775
2023-01-01T04:57:16.724Z,5.3
2023-01-01T05:01:18.361Z,7.2875
2023-01-01T05:04:17.063Z,6.6125
2023-01-01T05:07:16.296Z,5.3875
2023-01-01T05:11:18.332Z,5.699999999999999
2023-01-01T05:14:16.351Z,5.85
2023-01-01T05:17:16.190Z,4.575
2023-01-01T05:21:18.077Z,6.625
2023-01-01T05:24:16.758Z,6.5875
2023-01-01T05:27:16.584Z,5.8374999999999995
2023-01-01T05:31:17.158Z,4.3125
2023-01-01T05:34:16.111Z,5.8375
2023-01-01T05:37:16.102Z,8.2
2023-01-01T05:41:17.775Z,6.925000000000001
2023-01-01T05:44:17.519Z,7.3125
2023-01-01T05:47:18.760Z,9.8625
2023-01-01T05:51:17.891Z,7.6875
2023-01-01T06:01:17.992Z,8.1125
2023-01-01T06:04:16.186Z,8.3625
2023-01-01T06:07:16.111Z,7.1625
2023-01-01T06:11:16.101Z,7.625
2023-01-01T06:14:16.261Z,10.15
2023-01-01T06:17:16.217Z,11.100000000000001
2023-01-01T06:21:17.545Z,8.537499999999998
2023-01-01T06:24:16.085Z,7.475
2023-01-01T06:27:16.097Z,7.675
2023-01-01T06:31:17.990Z,11.862499999999999
2023-01-01T06:34:16.381Z,9.674999999999999
2023-01-01T06:37:16.270Z,10.8875
2023-01-01T06:41:18.664Z,10.3375
2023-01-01T06:44:16.610Z,13.4375
2023-01-01T06:47:16.606Z,30.6375
2023-01-01T06:51:18.354Z,9.162500000000001
2023-01-01T06:54:16.393Z,7.8375
2023-01-01T06:57:16.546Z,8.975
2023-01-01T07:01:17.993Z,9
2023-01-01T07:04:16.450Z,6.7375
2023-01-01T07:07:16.327Z,5.4375
2023-01-01T07:11:16.530Z,6.5375
2023-01-01T07:14:16.732Z,6.0375
2023-01-01T07:17:16.841Z,8.025
2023-01-01T07:21:28.891Z,11.325
2023-01-01T07:24:16.969Z,12.462499999999999
2023-01-01T07:27:16.572Z,7.199999999999999
2023-01-01T07:31:15.786Z,11
2023-01-01T07:34:17.566Z,9.025
2023-01-01T07:37:16.079Z,9.200000000000001
2023-01-01T07:41:15.622Z,8.375
2023-01-01T07:44:16.154Z,8.9625
2023-01-01T07:47:20.748Z,7.1125
2023-01-01T07:51:16.254Z,7.2875
2023-01-01T07:54:16.484Z,30.0875
2023-01-01T07:57:16.698Z,32.1125
2023-01-01T08:01:16.255Z,13.399999999999999
2023-01-01T08:04:16.371Z,7.2625
2023-01-01T08:07:16.440Z,9.075
2023-01-01T08:11:16.464Z,7.525
2023-01-01T08:14:17.064Z,7.112500000000001
2023-01-01T08:17:16.894Z,5.1875
2023-01-01T08:21:16.066Z,6.25
2023-01-01T08:24:16.312Z,7.4125
2023-01-01T08:27:16.638Z,5.1125
2023-01-01T08:31:15.847Z,6.3374999999999995
2023-01-01T08:34:16.003Z,5.2125
2023-01-01T08:37:17.943Z,5.4624999999999995
2023-01-01T08:41:15.934Z,4.8
2023-01-01T08:44:16.461Z,4.85
2023-01-01T08:47:17.619Z,4.6125
2023-01-01T08:51:16.702Z,5.7
2023-01-01T08:54:16.529Z,4.05
2023-01-01T08:57:16.454Z,4.1625
2023-01-01T09:01:16.485Z,5.125
2023-01-01T09:04:17.274Z,5.137499999999999
2023-01-01T09:07:16.356Z,4.6375
2023-01-01T09:11:24.709Z,5.325
2023-01-01T09:14:16.376Z,4.8375
2023-01-01T09:17:16.421Z,5.237500000000001
2023-01-01T09:21:16.598Z,5.575
2023-01-01T09:24:17.117Z,3.9749999999999996
2023-01-01T09:27:16.985Z,5
2023-01-01T09:31:15.841Z,5.575
2023-01-01T09:34:18.165Z,5.4375
2023-01-01T09:37:16.193Z,5.137499999999999
2023-01-01T09:41:24.892Z,6.875
2023-01-01T09:44:29.338Z,6.4625
2023-01-01T09:47:25.162Z,5.3374999999999995
2023-01-01T09:51:18.852Z,4.987500000000001
2023-01-01T09:54:28.029Z,5.3875
2023-01-01T09:57:20.268Z,9.612499999999999
2023-01-01T10:01:33.951Z,6.45
2023-01-01T10:04:28.827Z,5.125
2023-01-01T10:07:22.688Z,4.675
2023-01-01T10:11:25.114Z,5.8125
2023-01-01T10:14:23.886Z,5.1125
2023-01-01T10:17:22.194Z,4.875
2023-01-01T10:21:20.379Z,5.137499999999999
2023-01-01T10:24:34.296Z,4.9625
2023-01-01T10:27:27.223Z,6.9125
2023-01-01T10:31:18.481Z,7.1125
2023-01-01T10:34:21.552Z,10.65
2023-01-01T10:37:18.212Z,9.475
2023-01-01T10:41:19.811Z,21.0875
2023-01-01T10:44:20.668Z,12.0125
2023-01-01T10:47:25.266Z,11.275
2023-01-01T10:51:16.853Z,28.25
2023-01-01T10:54:32.028Z,28.7125
2023-01-01T10:57:19.970Z,16.8375
2023-01-01T11:01:21.186Z,11.7
2023-01-01T11:04:20.217Z,10.125
2023-01-01T11:07:24.119Z,7.437499999999999
2023-01-01T11:11:22.268Z,7.487500000000001
2023-01-01T11:14:21.796Z,9.025
2023-01-01T11:17:21.088Z,7.375
2023-01-01T11:21:21.121Z,9.6
2023-01-01T11:24:19.430Z,9.6375
2023-01-01T11:27:21.829Z,8.6125
2023-01-01T11:31:19.151Z,9.6125
2023-01-01T11:34:28.079Z,9.975000000000001
2023-01-01T11:37:24.979Z,10.8125
2023-01-01T11:41:16.041Z,12.775
2023-01-01T11:44:27.003Z,8.6875
2023-01-01T11:47:24.153Z,10.875
2023-01-01T11:51:29.818Z,14.1875
2023-01-01T11:54:30.143Z,9.4125
2023-01-01T11:57:24.085Z,7.25
2023-01-01T12:01:27.398Z,9.8875
2023-01-01T12:04:23.911Z,7.275
2023-01-01T12:07:22.153Z,7.3125
2023-01-01T12:11:23.241Z,8.975000000000001
2023-01-01T12:14:21.965Z,8.175
2023-01-01T12:17:21.671Z,8.05
2023-01-01T12:21:20.137Z,6.237500000000001
2023-01-01T12:24:16.418Z,7.450000000000001
2023-01-01T12:27:26.068Z,7.15
2023-01-01T12:31:23.753Z,28.8625
2023-01-01T12:34:25.773Z,10.625
2023-01-01T12:37:28.313Z,7.2625
2023-01-01T12:41:28.382Z,6.8
2023-01-01T12:44:28.559Z,8.85
2023-01-01T12:47:35.930Z,13.7125
2023-01-01T12:51:30.156Z,9.3125
2023-01-01T12:54:38.110Z,12.425
2023-01-01T12:57:28.092Z,8.899999999999999
2023-01-01T13:01:19.922Z,8.85
2023-01-01T13:04:19.310Z,15.4
2023-01-01T13:07:24.457Z,24.1125
2023-01-01T13:11:17.185Z,17.25
2023-01-01T13:14:16.759Z,23.1
2023-01-01T13:17:19.812Z,17.6
2023-01-01T13:21:22.234Z,11.9125
2023-01-01T13:24:21.716Z,7.6625
2023-01-01T13:28:03.632Z,6.1875
2023-01-01T13:31:15.869Z,7.0875
2023-01-01T13:34:32.959Z,7.05
2023-01-01T13:37:49.886Z,11.4875
2023-01-01T13:41:31.273Z,10.95
2023-01-01T13:44:21.202Z,8.3125
2023-01-01T13:47:31.336Z,6.4625
2023-01-01T13:52:04.145Z,6.275
2023-01-01T14:01:34.918Z,6.387499999999999
2023-01-01T14:04:29.648Z,6.5625
2023-01-01T14:07:50.248Z,6.1375
2023-01-01T14:11:19.219Z,7.9375
2023-01-01T14:14:24.766Z,6.325
2023-01-01T14:17:16.780Z,6.3
2023-01-01T14:21:18.827Z,7.0375
2023-01-01T14:24:19.311Z,6.1625
2023-01-01T14:27:19.745Z,7.9
2023-01-01T14:31:18.879Z,5.775
2023-01-01T14:34:23.754Z,6.0625
2023-01-01T14:37:22.049Z,5.45
2023-01-01T14:41:20.802Z,6.05
2023-01-01T14:44:19.576Z,5.5875
2023-01-01T14:47:23.037Z,5.737500000000001
2023-01-01T14:51:21.284Z,6.4625
2023-01-01T14:54:20.321Z,7.262499999999999
2023-01-01T14:57:19.759Z,5.6625
2023-01-01T15:01:21.986Z,7.625
2023-01-01T15:04:21.729Z,6.1875
2023-01-01T15:07:21.112Z,7.1499999999999995
2023-01-01T15:11:16.827Z,9.3
2023-01-01T15:14:30.433Z,6.0375
2023-01-01T15:17:18.847Z,7.7375
2023-01-01T15:21:23.342Z,7.7625
2023-01-01T15:24:19.024Z,7.387499999999999
2023-01-01T15:27:23.354Z,11.8
2023-01-01T15:31:15.979Z,8.4375
2023-01-01T15:34:22.598Z,6.675000000000001
2023-01-01T15:37:21.699Z,5.8375
2023-01-01T15:41:41.340Z,6.2125
2023-01-01T15:44:19.567Z,5.3125
2023-01-01T15:47:16.640Z,8.825
2023-01-01T15:51:18.957Z,9.125
2023-01-01T15:54:18.126Z,6.4875
2023-01-01T15:57:20.529Z,6.3500000000000005
2023-01-01T16:01:21.028Z,8.575
2023-01-01T16:04:27.731Z,8.462499999999999
2023-01-01T16:07:19.464Z,6.675
2023-01-01T16:11:16.267Z,7.25
2023-01-01T16:14:16.928Z,6.7124999999999995
2023-01-01T16:17:19.351Z,5.65
2023-01-01T16:21:16.706Z,7.512499999999999
2023-01-01T16:24:18.347Z,6.862500000000001
2023-01-01T16:27:16.428Z,7.0125
2023-01-01T16:31:18.668Z,8.375
2023-01-01T16:34:16.326Z,7.824999999999999
2023-01-01T16:37:19.306Z,6.9625
2023-01-01T16:41:17.282Z,9.149999999999999
2023-01-01T16:44:16.467Z,8.1
2023-01-01T16:47:16.445Z,7.7625
2023-01-01T16:51:19.772Z,9.2125
2023-01-01T16:54:16.825Z,8.7625
2023-01-01T16:57:16.907Z,8.975000000000001
2023-01-01T17:01:16.572Z,9.575
2023-01-01T17:04:16.916Z,9.0625
2023-01-01T17:07:16.720Z,10.0375
2023-01-01T17:11:17.576Z,11.375
2023-01-01T17:14:16.607Z,9.425
2023-01-01T17:17:16.748Z,10.25
2023-01-01T17:21:17.149Z,8.7375
2023-01-01T17:24:18.186Z,7.4125
2023-01-01T17:27:16.343Z,8.549999999999999
2023-01-01T17:31:18.305Z,9.625
2023-01-01T17:34:17.249Z,9.1
2023-01-01T17:37:16.469Z,8.8875
2023-01-01T17:41:16.498Z,9.0375
2023-01-01T17:44:15.978Z,8.1625
2023-01-01T17:47:16.194Z,7.6625
2023-01-01T17:51:17.272Z,8.9375
2023-01-01T17:54:16.493Z,9.6875
2023-01-01T17:57:17.990Z,10.05
2023-01-01T18:01:28.108Z,9.75
2023-01-01T18:04:16.594Z,8.962499999999999
2023-01-01T18:07:16.425Z,9.65
2023-01-01T18:11:15.841Z,10.1375
2023-01-01T18:14:19.680Z,9.5125
2023-01-01T18:17:16.177Z,11.537500000000001
2023-01-01T18:21:21.242Z,10.7375
2023-01-01T18:24:16.363Z,13.5375
2023-01-01T18:27:16.193Z,10.975000000000001
2023-01-01T18:31:16.059Z,9.375
2023-01-01T18:34:16.330Z,9.2625
2023-01-01T18:37:16.288Z,8.475
2023-01-01T18:41:34.714Z,7.6499999999999995
2023-01-01T18:44:19.258Z,8.4875
2023-01-01T18:47:17.780Z,7.962499999999999
2023-01-01T18:51:21.527Z,8.737499999999999
2023-01-01T18:54:17.106Z,9.462499999999999
2023-01-01T18:57:22.419Z,9.6625
2023-01-01T19:01:21.653Z,10.649999999999999
2023-01-01T19:04:19.704Z,9.7125
2023-01-01T19:07:16.764Z,7.8875
2023-01-01T19:11:20.037Z,9.125
2023-01-01T19:14:18.961Z,7.9625
2023-01-01T19:17:21.950Z,8.8625
2023-01-01T19:21:21.049Z,10.675
2023-01-01T19:24:18.816Z,11.3875
2023-01-01T19:27:18.197Z,9.8625
2023-01-01T19:31:15.986Z,11.625
2023-01-01T19:34:17.254Z,10.75
2023-01-01T19:37:16.332Z,10.837499999999999
2023-01-01T19:41:15.615Z,10.225
2023-01-01T19:44:21.446Z,8.3
2023-01-01T19:47:15.956Z,8.412500000000001
2023-01-01T19:51:16.131Z,9.375
2023-01-01T19:54:16.545Z,8.5875
2023-01-01T19:57:16.494Z,13.0375
2023-01-01T20:01:16.659Z,16.2125
2023-01-01T20:04:16.944Z,13.6125
2023-01-01T20:07:17.856Z,21.987499999999997
2023-01-01T20:11:16.630Z,20.5
2023-01-01T20:14:16.781Z,14.8875
2023-01-01T20:17:18.046Z,13.075
2023-01-01T20:22:22.196Z,13.3
2023-01-01T20:24:17.619Z,14.175
2023-01-01T20:27:18.060Z,13.625
2023-01-01T20:31:15.930Z,13.1625
2023-01-01T20:34:16.614Z,19.525
2023-01-01T20:37:48.341Z,19.862499999999997
2023-01-01T20:41:30.910Z,19.225
2023-01-01T20:44:16.159Z,14.4875
2023-01-01T20:47:16.002Z,17.150000000000002
2023-01-01T20:51:16.004Z,13.325
2023-01-01T20:54:16.896Z,10.4375
2023-01-01T20:57:16.349Z,10.2375
2023-01-01T21:01:16.413Z,11.6375
2023-01-01T21:04:16.876Z,10.525
2023-01-01T21:07:16.778Z,11.475
2023-01-01T21:11:16.126Z,12.4625
2023-01-01T21:14:17.088Z,10.0625
2023-01-01T21:17:19.064Z,9.4625
2023-01-01T21:21:19.995Z,10.274999999999999
2023-01-01T21:24:21.843Z,8.125
2023-01-01T21:27:20.634Z,8.525
2023-01-01T21:31:16.084Z,10.212499999999999
2023-01-01T21:34:25.864Z,9.662500000000001
2023-01-01T21:37:21.543Z,9.1
2023-01-01T21:41:18.277Z,10.6625
2023-01-01T21:44:16.116Z,8.925
2023-01-01T21:47:21.492Z,9.600000000000001
2023-01-01T21:51:21.557Z,10.4625
2023-01-01T21:54:21.330Z,8.462499999999999
2023-01-01T21:57:20.225Z,8.85
2023-01-01T22:01:22.428Z,10.600000000000001
2023-01-01T22:04:20.212Z,10.2375
2023-01-01T22:07:56.519Z,10.7375
2023-01-01T22:11:24.279Z,11.725000000000001
2023-01-01T22:14:18.104Z,11.037500000000001
2023-01-01T22:17:21.333Z,10.212500000000002
2023-01-01T22:21:17.491Z,10.575
2023-01-01T22:24:34.325Z,9.125
2023-01-01T22:27:24.755Z,8.3125
2023-01-01T22:31:20.232Z,8.55
2023-01-01T22:34:21.563Z,8.05
2023-01-01T22:37:19.860Z,7.1125
2023-01-01T22:41:15.693Z,8.287500000000001
2023-01-01T22:44:16.002Z,7.387499999999999
2023-01-01T22:47:16.864Z,6.750000000000001
2023-01-01T22:51:19.567Z,9.2
2023-01-01T22:54:16.371Z,10.95
2023-01-01T22:57:16.401Z,9.524999999999999
2023-01-01T23:01:17.033Z,12.1
2023-01-01T23:04:16.558Z,8.725000000000001
2023-01-01T23:07:16.583Z,10.0875
2023-01-01T23:11:16.956Z,12.3
2023-01-01T23:21:26.084Z,12.2375
2023-01-01T23:24:20.591Z,11.975000000000001
2023-01-01T23:27:16.986Z,9.6875
2023-01-01T23:31:24.484Z,9.1125
2023-01-01T23:34:16.656Z,8.0125
2023-01-01T23:37:16.523Z,7.5249999999999995
2023-01-01T23:41:15.809Z,10.225000000000001
2023-01-01T23:44:16.262Z,8.7875
2023-01-01T23:47:16.701Z,7.4875
2023-01-01T23:51:17.539Z,10.4375
2023-01-01T23:54:17.095Z,8
2023-01-01T23:57:17.132Z,8.125
